This is the latest recevied weather packets stored in our database for station/object GW1546. If no packets are shown the sender has not sent any weather packets the latest 10 day(s).
| Time | Temp. | Humidity | Pressure | Rain* | Wind** | Luminosity | Snow |
|---|---|---|---|---|---|---|---|
| 1777373323 | 12.22° C | 99% | 986.7 hPa | 11.94 mm | - | - | - |
| 1777371886 | 12.22° C | 99% | 987.1 hPa | 11.94 mm | - | - | - |
| 1777371509 | 12.22° C | 99% | 987.4 hPa | 11.94 mm | - | - | - |
| 1777367892 | 12.22° C | 99% | 989.1 hPa | 11.68 mm | - | - | - |
| 1777366827 | 12.22° C | 99% | 990.1 hPa | 11.68 mm | - | - | - |
| 1777366464 | 12.22° C | 99% | 989.8 hPa | 11.68 mm | - | - | - |
| 1777365750 | 12.22° C | 99% | 990.1 hPa | 11.43 mm | - | - | - |
| 1777363960 | 12.22° C | 98% | 986.1 hPa | 9.91 mm | - | - | - |
| 1777361787 | 12.22° C | 99% | 986.7 hPa | 7.62 mm | - | - | - |
| 1777360346 | 12.78° C | 98% | 986.7 hPa | 5.84 mm | - | - | - |
| 1777356025 | 13.33° C | 96% | 989.8 hPa | 1.78 mm | - | - | - |
| 1777350613 | 19.44° C | 48% | 988.1 hPa | 0 mm | - | - | - |
| 1777349561 | 19.44° C | 49% | 988.4 hPa | 0 mm | - | - | - |
| 1777348489 | 19.44° C | 48% | 988.1 hPa | 0 mm | - | - | - |
| 1777347395 | 19.44° C | 49% | 988.4 hPa | 0 mm | - | - | - |
| 1777346688 | 20° C | 48% | 988.4 hPa | 0 mm | - | - | - |
| 1777343791 | 20.56° C | 46% | 988.4 hPa | 0 mm | - | - | - |
| 1777340930 | 21.11° C | 54% | 988.4 hPa | 0 mm | - | - | - |
| 1777340547 | 21.11° C | 47% | 988.1 hPa | 0 mm | - | - | - |
| 1777340207 | 21.67° C | 46% | 987.8 hPa | 0 mm | - | - | - |
| 1777337298 | 20° C | 59% | 987.4 hPa | 0 mm | - | - | - |
| 1777335889 | 19.44° C | 69% | 987.1 hPa | 0 mm | - | - | - |
| 1777332627 | 21.11° C | 67% | 987.4 hPa | 0 mm | - | - | - |
| 1777330491 | 22.78° C | 63% | 987.1 hPa | 0 mm | - | - | - |
| 1777326860 | 26.11° C | 46% | 987.1 hPa | 0 mm | - | - | - |
* Rain since midnight (hover to see other rain measurements)
** Current wind speed in m/s (hover to see current wind gust speed)